Time;durP1;ratioP1;P1;durP2;ratioP2;P2;SDS_P1;SDS_P2;PMS_P1;PMS_P2;Temp;Humidity;BMP_temperature;BMP_pressure;BME280_temperature;BME280_humidity;BME280_pressure;Samples;Min_cycle;Max_cycle;Signal;HPM_P1;HPM_P2
2023/01/07 00:00:03;;;;;;;0.70;0.70;;;7.30;96.30;;;;;;4147876;28;20447;-66
2023/01/07 00:02:03;;;;;;;1.07;1.00;;;7.30;96.10;;;;;;4147628;28;20177;-63
2023/01/07 00:04:07;;;;;;;1.30;1.20;;;7.30;96.20;;;;;;4147960;28;20185;-63
2023/01/07 00:06:21;;;;;;;1.20;0.90;;;7.30;96.20;;;;;;4147890;28;20545;-63
2023/01/07 00:08:22;;;;;;;0.93;0.80;;;7.40;96.30;;;;;;4147930;28;20168;-63
2023/01/07 00:10:23;;;;;;;0.63;0.60;;;7.30;96.30;;;;;;4147989;28;20981;-63
2023/01/07 00:12:23;;;;;;;1.00;0.67;;;7.20;96.30;;;;;;4147746;28;20567;-64
2023/01/07 00:14:24;;;;;;;1.40;0.80;;;7.10;96.80;;;;;;4147707;28;20539;-64
2023/01/07 00:16:28;;;;;;;0.60;0.60;;;7.10;97.00;;;;;;4147463;28;20181;-64
2023/01/07 00:18:29;;;;;;;0.70;0.60;;;7.00;97.40;;;;;;4148057;28;20232;-64
2023/01/07 00:20:30;;;;;;;0.63;0.60;;;6.80;97.90;;;;;;4163857;28;20577;-64
2023/01/07 00:22:30;;;;;;;0.50;0.50;;;6.80;97.80;;;;;;4164336;28;20208;-64
2023/01/07 00:24:31;;;;;;;0.87;0.60;;;6.70;98.30;;;;;;4164067;28;20242;-63
2023/01/07 00:26:35;;;;;;;0.50;0.50;;;6.60;98.50;;;;;;4163481;28;20177;-62
2023/01/07 00:28:39;;;;;;;0.93;0.57;;;6.60;98.90;;;;;;4162703;28;20229;-64
2023/01/07 00:30:40;;;;;;;0.60;0.60;;;6.60;98.80;;;;;;4163428;28;20455;-64
2023/01/07 00:32:58;;;;;;;0.90;0.60;;;6.70;98.30;;;;;;4164061;28;20185;-65
2023/01/07 00:34:59;;;;;;;0.70;0.60;;;6.80;98.30;;;;;;4163650;28;20283;-63
2023/01/07 00:37:48;;;;;;;0.50;0.50;;;6.80;98.20;;;;;;4163168;28;20223;-63
2023/01/07 00:39:20;;;;;;;0.63;0.63;;;6.70;98.30;;;;;;4163467;28;20189;-63
2023/01/07 00:41:21;;;;;;;1.00;0.63;;;6.70;98.20;;;;;;4163816;28;20227;-63
2023/01/07 00:43:22;;;;;;;1.03;0.70;;;6.70;98.50;;;;;;4163804;28;20189;-64
2023/01/07 00:45:24;;;;;;;0.70;0.60;;;6.60;98.60;;;;;;4162830;28;20494;-63
2023/01/07 00:47:25;;;;;;;0.60;0.60;;;6.70;98.50;;;;;;4162880;28;20185;-63
2023/01/07 00:49:26;;;;;;;0.60;0.60;;;6.50;98.70;;;;;;4161339;28;20403;-63
2023/01/07 00:51:27;;;;;;;0.50;0.50;;;6.60;98.80;;;;;;4163678;28;20208;-62
2023/01/07 00:53:29;;;;;;;0.87;0.83;;;6.60;98.70;;;;;;4163549;28;20181;-64
2023/01/07 00:55:30;;;;;;;3.65;1.75;;;6.80;98.50;;;;;;4162600;28;20514;-64
2023/01/07 00:57:31;;;;;;;1.37;0.97;;;7.00;98.10;;;;;;4162535;28;20262;-65
2023/01/07 00:59:31;;;;;;;1.27;0.70;;;7.10;97.70;;;;;;4163488;28;20205;-63
2023/01/07 01:01:32;;;;;;;0.60;0.60;;;7.10;97.30;;;;;;4163867;28;20207;-63
2023/01/07 01:03:33;;;;;;;0.50;0.50;;;7.20;97.10;;;;;;4163439;28;20203;-63
2023/01/07 01:05:33;;;;;;;0.50;0.50;;;7.20;96.90;;;;;;4161890;28;20223;-64
2023/01/07 01:07:35;;;;;;;0.60;0.50;;;7.20;97.00;;;;;;4162703;28;20179;-64
2023/01/07 01:09:35;;;;;;;2.43;0.97;;;7.30;96.70;;;;;;4163211;28;20185;-64
2023/01/07 01:11:36;;;;;;;1.47;1.00;;;7.30;96.60;;;;;;4163013;28;20223;-63
2023/01/07 01:13:37;;;;;;;7.13;2.17;;;7.10;97.00;;;;;;4162885;28;20675;-64
2023/01/07 01:15:45;;;;;;;0.60;0.60;;;7.00;97.40;;;;;;4162978;28;20953;-64
2023/01/07 01:17:46;;;;;;;0.50;0.50;;;6.80;98.30;;;;;;4173282;28;20183;-64
2023/01/07 01:19:46;;;;;;;0.90;0.70;;;6.60;98.90;;;;;;4166377;28;20173;-65
2023/01/07 01:21:47;;;;;;;0.50;0.50;;;6.50;99.30;;;;;;4163860;28;20173;-63
2023/01/07 01:23:48;;;;;;;0.70;0.70;;;6.50;99.20;;;;;;4163568;28;20236;-65
2023/01/07 01:25:48;;;;;;;0.60;0.60;;;6.40;99.50;;;;;;4153942;28;20189;-64
2023/01/07 01:27:49;;;;;;;0.80;0.47;;;6.40;99.80;;;;;;4146212;28;20193;-63
2023/01/07 01:29:49;;;;;;;1.03;0.90;;;6.50;99.70;;;;;;4146771;28;20224;-64
2023/01/07 01:31:50;;;;;;;0.67;0.67;;;6.60;99.30;;;;;;4147011;28;20741;-63
2023/01/07 01:33:55;;;;;;;2.90;0.97;;;6.60;99.10;;;;;;4146936;28;20192;-63
2023/01/07 01:35:56;;;;;;;2.27;0.80;;;6.30;99.90;;;;;;4145365;28;20181;-63
2023/01/07 01:37:59;;;;;;;2.27;1.27;;;6.20;99.90;;;;;;4146411;28;20628;-64
2023/01/07 01:40:02;;;;;;;1.50;0.80;;;6.40;99.90;;;;;;4147090;28;20181;-64
2023/01/07 01:42:03;;;;;;;3.37;1.10;;;6.50;99.70;;;;;;4146802;28;20181;-64
2023/01/07 01:44:32;;;;;;;1.10;0.80;;;6.50;99.80;;;;;;4146374;28;20467;-63
2023/01/07 01:46:39;;;;;;;0.70;0.70;;;6.30;99.90;;;;;;4145797;28;20220;-64
2023/01/07 01:48:50;;;;;;;0.73;0.70;;;6.40;99.90;;;;;;4145195;28;20421;-63
2023/01/07 01:50:52;;;;;;;0.70;0.70;;;6.40;99.50;;;;;;4145330;28;20476;-63
2023/01/07 01:53:26;;;;;;;0.87;0.70;;;6.30;99.40;;;;;;4144867;28;20560;-64
2023/01/07 01:55:34;;;;;;;0.60;0.60;;;6.40;98.80;;;;;;4143207;28;20922;-64
2023/01/07 01:57:37;;;;;;;0.60;0.60;;;6.40;99.50;;;;;;4145455;28;20425;-64
2023/01/07 01:59:42;;;;;;;0.83;0.50;;;6.30;99.60;;;;;;4145466;28;20504;-64
2023/01/07 02:01:44;;;;;;;0.50;0.50;;;6.30;99.90;;;;;;4145064;28;20428;-63
2023/01/07 02:03:46;;;;;;;0.60;0.60;;;6.20;99.90;;;;;;4144884;28;20180;-64
2023/01/07 02:05:47;;;;;;;0.57;0.50;;;6.30;99.90;;;;;;4145933;28;20182;-64
2023/01/07 02:07:48;;;;;;;0.77;0.77;;;6.40;99.90;;;;;;4145645;28;20508;-64
2023/01/07 02:10:01;;;;;;;0.47;0.47;;;6.50;99.50;;;;;;4145851;28;20471;-64
2023/01/07 02:12:38;;;;;;;0.70;0.50;;;6.50;99.90;;;;;;4146031;28;20193;-66
2023/01/07 02:15:16;;;;;;;0.60;0.60;;;6.60;99.90;;;;;;4144627;28;20649;-64
2023/01/07 02:17:46;;;;;;;0.50;0.50;;;6.70;98.90;;;;;;4145288;28;20256;-64
2023/01/07 02:20:12;;;;;;;0.60;0.50;;;6.80;98.60;;;;;;4127640;28;20200;-64
2023/01/07 02:22:41;;;;;;;0.50;0.50;;;6.90;98.20;;;;;;4144322;28;20436;-64
2023/01/07 02:25:18;;;;;;;2.33;0.70;;;6.80;98.40;;;;;;4144811;28;20166;-64
2023/01/07 02:27:53;;;;;;;1.37;0.60;;;6.80;98.40;;;;;;4141001;28;20517;-64
2023/01/07 02:30:23;;;;;;;0.73;0.50;;;6.90;98.20;;;;;;4144491;28;20191;-64
2023/01/07 02:32:52;;;;;;;0.40;0.40;;;6.90;98.30;;;;;;4160729;28;20179;-64
2023/01/07 02:35:22;;;;;;;0.40;0.40;;;6.90;97.90;;;;;;4160651;28;20471;-64
2023/01/07 02:37:54;;;;;;;0.50;0.50;;;6.90;98.10;;;;;;4160147;28;20172;-64
2023/01/07 02:40:13;;;;;;;0.70;0.70;;;6.80;97.90;;;;;;4160731;28;20471;-64
2023/01/07 02:42:29;;;;;;;0.70;0.60;;;6.80;98.50;;;;;;4161948;28;20168;-64
2023/01/07 02:45:17;;;;;;;0.60;0.50;;;6.70;99.00;;;;;;4160974;28;20790;-64
2023/01/07 02:47:41;;;;;;;0.40;0.40;;;6.80;99.20;;;;;;4160012;28;20424;-64
2023/01/07 02:49:42;;;;;;;1.40;0.60;;;6.80;99.50;;;;;;4160776;28;20179;-65
2023/01/07 02:51:45;;;;;;;0.70;0.60;;;6.80;98.90;;;;;;4161999;28;20428;-64
2023/01/07 02:53:48;;;;;;;0.47;0.47;;;6.90;98.50;;;;;;4161700;28;20552;-64
2023/01/07 02:57:02;;;;;;;0.50;0.50;;;6.90;98.30;;;;;;4161644;28;20463;-65
2023/01/07 02:59:40;;;;;;;0.43;0.40;;;6.80;98.80;;;;;;4149648;28;20436;-64
2023/01/07 03:02:19;;;;;;;0.60;0.60;;;6.70;99.80;;;;;;4162145;28;20939;-64
2023/01/07 03:04:56;;;;;;;0.33;0.33;;;6.60;99.70;;;;;;4160696;28;20425;-63
2023/01/07 03:07:20;;;;;;;0.30;0.30;;;6.80;99.60;;;;;;4160051;28;20843;-64
2023/01/07 03:09:49;;;;;;;0.37;0.37;;;6.80;99.90;;;;;;4161773;28;20284;-64
2023/01/07 03:12:06;;;;;;;0.40;0.40;;;6.70;99.50;;;;;;4160979;28;20664;-63
2023/01/07 03:14:36;;;;;;;0.30;0.30;;;6.80;99.40;;;;;;4160514;28;20570;-64
2023/01/07 03:16:46;;;;;;;0.30;0.30;;;6.80;99.40;;;;;;4161958;28;20427;-63
2023/01/07 03:18:58;;;;;;;0.40;0.40;;;6.80;99.80;;;;;;4167360;28;20851;-64
2023/01/07 03:21:07;;;;;;;0.40;0.40;;;6.60;99.70;;;;;;4161619;28;20443;-64
2023/01/07 03:23:11;;;;;;;0.40;0.40;;;6.60;99.70;;;;;;4162429;28;20180;-64
2023/01/07 03:25:13;;;;;;;1.27;0.40;;;6.50;99.90;;;;;;4161157;28;20192;-64
2023/01/07 03:27:17;;;;;;;0.50;0.50;;;6.40;99.90;;;;;;4161670;28;20189;-64
2023/01/07 03:29:19;;;;;;;0.50;0.50;;;6.50;99.90;;;;;;4160812;28;20874;-64
2023/01/07 03:31:21;;;;;;;0.40;0.40;;;6.40;99.90;;;;;;4152632;28;20201;-64
2023/01/07 03:33:51;;;;;;;0.50;0.50;;;6.30;99.90;;;;;;4146127;28;21001;-64
2023/01/07 03:35:55;;;;;;;0.40;0.40;;;6.30;99.90;;;;;;4143364;28;20238;-64
2023/01/07 03:37:59;;;;;;;2.17;0.50;;;6.50;99.90;;;;;;4146297;28;20255;-64
2023/01/07 03:40:05;;;;;;;0.60;0.60;;;6.50;99.90;;;;;;4147277;28;20185;-63
2023/01/07 03:44:28;;;;;;;0.40;0.40;;;6.50;99.90;;;;;;4148354;28;20596;-63
2023/01/07 03:46:29;;;;;;;0.57;0.50;;;6.50;99.90;;;;;;4147800;28;20423;-63
2023/01/07 03:48:29;;;;;;;0.70;0.70;;;6.60;99.90;;;;;;4148322;28;20599;-63
2023/01/07 03:50:30;;;;;;;0.50;0.50;;;6.50;99.90;;;;;;4148614;28;20202;-62
2023/01/07 03:52:31;;;;;;;0.70;0.70;;;6.50;99.90;;;;;;4148271;28;20228;-63
2023/01/07 03:54:31;;;;;;;1.07;0.97;;;6.50;99.90;;;;;;4148073;28;20206;-64
2023/01/07 03:56:32;;;;;;;0.90;0.90;;;6.40;99.90;;;;;;4145127;28;20641;-64
2023/01/07 03:58:33;;;;;;;1.20;1.00;;;6.30;99.90;;;;;;4148207;28;20174;-64
2023/01/07 04:00:33;;;;;;;1.10;0.90;;;6.20;99.90;;;;;;4148179;28;20779;-64
2023/01/07 04:02:34;;;;;;;0.70;0.70;;;6.20;99.90;;;;;;4148222;28;20228;-64
2023/01/07 04:04:35;;;;;;;1.00;0.80;;;6.40;99.90;;;;;;4146861;28;20185;-64
2023/01/07 04:06:35;;;;;;;1.63;0.97;;;6.40;99.90;;;;;;4147281;28;20187;-64
2023/01/07 04:08:36;;;;;;;1.33;1.00;;;6.30;99.90;;;;;;4147921;28;20213;-63
2023/01/07 04:10:37;;;;;;;1.00;0.90;;;6.40;99.90;;;;;;4147820;28;20205;-64
2023/01/07 04:12:37;;;;;;;2.83;1.90;;;6.40;99.90;;;;;;4145312;28;20229;-64
2023/01/07 04:14:38;;;;;;;3.00;1.70;;;6.20;99.90;;;;;;4147720;28;20217;-64
2023/01/07 04:16:39;;;;;;;2.90;1.87;;;6.20;99.90;;;;;;4160499;28;20716;-63
2023/01/07 04:18:40;;;;;;;2.53;1.70;;;6.20;99.90;;;;;;4164174;28;20423;-63
2023/01/07 04:20:45;;;;;;;1.87;1.30;;;6.20;99.90;;;;;;4164021;28;20208;-64
2023/01/07 04:22:46;;;;;;;2.80;1.80;;;6.20;99.90;;;;;;4164275;28;20173;-63
2023/01/07 04:24:47;;;;;;;2.33;1.70;;;6.20;99.90;;;;;;4164042;28;20204;-64
2023/01/07 04:26:47;;;;;;;2.60;1.70;;;6.20;99.90;;;;;;4163084;28;20189;-64
2023/01/07 04:28:48;;;;;;;2.63;1.97;;;6.20;99.90;;;;;;4163943;28;20185;-63
2023/01/07 04:30:48;;;;;;;2.63;2.00;;;6.20;99.90;;;;;;4163883;28;20231;-64
2023/01/07 04:32:50;;;;;;;3.07;1.90;;;6.10;99.90;;;;;;4163789;28;20176;-63
2023/01/07 04:34:50;;;;;;;3.60;2.07;;;6.10;99.90;;;;;;4163478;28;20204;-64
2023/01/07 04:36:51;;;;;;;3.70;2.20;;;6.20;99.90;;;;;;4162804;28;20419;-63
2023/01/07 04:38:52;;;;;;;2.63;1.93;;;6.30;99.90;;;;;;4163851;28;20195;-63
2023/01/07 04:40:52;;;;;;;2.93;2.23;;;6.30;99.90;;;;;;4163774;28;20205;-64
2023/01/07 04:42:53;;;;;;;4.57;1.93;;;6.40;99.90;;;;;;4163658;28;20179;-63
2023/01/07 04:44:54;;;;;;;3.07;2.23;;;6.40;99.90;;;;;;4163334;28;20192;-67
2023/01/07 04:46:54;;;;;;;5.03;2.60;;;6.30;99.90;;;;;;4162999;28;20556;-64
2023/01/07 04:48:55;;;;;;;3.13;2.20;;;6.20;99.90;;;;;;4163421;28;20187;-65
2023/01/07 04:50:56;;;;;;;3.67;2.30;;;6.30;99.90;;;;;;4163316;28;20254;-63
2023/01/07 04:52:56;;;;;;;3.70;2.60;;;6.30;99.90;;;;;;4163661;28;20648;-63
2023/01/07 04:54:57;;;;;;;4.03;2.70;;;6.40;99.90;;;;;;4163144;28;20301;-63
2023/01/07 04:56:58;;;;;;;4.27;2.93;;;6.40;99.90;;;;;;4162649;28;20181;-63
2023/01/07 04:58:58;;;;;;;4.30;2.70;;;6.30;99.90;;;;;;4163106;28;20609;-63
2023/01/07 05:01:02;;;;;;;4.10;2.40;;;6.30;99.90;;;;;;4163112;28;20706;-64
2023/01/07 05:03:03;;;;;;;5.43;3.30;;;6.30;99.90;;;;;;4163601;28;20169;-63
2023/01/07 05:05:04;;;;;;;3.90;2.57;;;6.30;99.90;;;;;;4163185;28;20192;-63
2023/01/07 05:07:05;;;;;;;4.67;3.43;;;6.40;99.90;;;;;;4162697;28;20195;-64
2023/01/07 05:09:05;;;;;;;3.57;2.67;;;6.30;99.90;;;;;;4163426;28;20212;-64
2023/01/07 05:11:06;;;;;;;6.33;3.20;;;6.10;99.90;;;;;;4162010;28;20569;-63
2023/01/07 05:13:13;;;;;;;4.10;2.97;;;6.10;99.90;;;;;;4163036;28;20297;-63
2023/01/07 05:15:14;;;;;;;12.30;6.47;;;6.10;99.90;;;;;;4163092;28;20203;-66
2023/01/07 05:17:15;;;;;;;9.17;5.10;;;6.10;99.90;;;;;;4165665;28;20177;-62
2023/01/07 05:19:15;;;;;;;6.57;3.67;;;6.10;99.90;;;;;;4172487;28;20181;-64
2023/01/07 05:21:16;;;;;;;4.97;2.57;;;6.20;99.90;;;;;;4164028;28;20566;-64
2023/01/07 05:23:17;;;;;;;4.20;2.43;;;6.40;99.90;;;;;;4163380;28;20208;-63
2023/01/07 05:25:18;;;;;;;6.23;2.80;;;6.40;99.90;;;;;;4163052;28;20919;-64
2023/01/07 05:27:18;;;;;;;3.83;2.70;;;6.50;99.90;;;;;;4162328;28;20905;-64
2023/01/07 05:29:19;;;;;;;3.83;2.60;;;6.60;99.90;;;;;;4151949;28;20224;-63
2023/01/07 05:31:20;;;;;;;5.97;3.23;;;6.40;99.90;;;;;;4161610;28;20207;-63
2023/01/07 05:33:20;;;;;;;4.53;2.70;;;6.50;99.90;;;;;;4146791;28;20656;-64
2023/01/07 05:35:21;;;;;;;5.63;3.00;;;6.30;99.90;;;;;;4146652;28;20281;-64
2023/01/07 05:37:22;;;;;;;4.13;2.73;;;6.30;99.90;;;;;;4146047;28;20189;-64
2023/01/07 05:39:23;;;;;;;4.30;2.83;;;6.20;99.90;;;;;;4146931;28;20217;-64
2023/01/07 05:41:23;;;;;;;5.13;2.33;;;6.20;99.90;;;;;;4146781;28;20201;-64
2023/01/07 05:43:24;;;;;;;2.67;1.83;;;6.10;99.90;;;;;;4146545;28;20239;-63
2023/01/07 05:45:25;;;;;;;3.90;2.80;;;6.10;99.90;;;;;;4146650;28;20669;-63
2023/01/07 05:47:25;;;;;;;2.90;1.97;;;6.10;99.90;;;;;;4145792;28;20719;-64
2023/01/07 05:49:26;;;;;;;2.63;1.90;;;6.10;99.90;;;;;;4146342;28;20181;-64
2023/01/07 05:51:27;;;;;;;3.00;2.03;;;6.10;99.90;;;;;;4146516;28;20229;-64
2023/01/07 05:53:27;;;;;;;2.43;1.70;;;6.10;99.90;;;;;;4146269;28;20200;-64
2023/01/07 05:55:28;;;;;;;3.00;2.20;;;6.10;99.90;;;;;;4146158;28;20281;-64
2023/01/07 05:57:28;;;;;;;2.33;2.00;;;6.10;99.90;;;;;;4145188;28;20174;-64
2023/01/07 05:59:29;;;;;;;2.77;1.90;;;6.00;99.90;;;;;;4146296;28;20174;-64
2023/01/07 06:01:30;;;;;;;2.40;1.90;;;6.10;99.90;;;;;;4146509;28;20241;-63
2023/01/07 06:03:31;;;;;;;1.90;1.70;;;6.00;99.90;;;;;;4146463;28;20182;-64
2023/01/07 06:05:31;;;;;;;2.93;2.30;;;6.00;99.90;;;;;;4146272;28;20181;-64
2023/01/07 06:07:32;;;;;;;3.10;2.10;;;5.90;99.90;;;;;;4145513;28;20185;-63
2023/01/07 06:09:33;;;;;;;2.60;2.10;;;5.80;99.90;;;;;;4146339;28;20224;-63
2023/01/07 06:11:33;;;;;;;2.00;1.80;;;5.80;99.90;;;;;;4145884;28;20208;-64
2023/01/07 06:13:34;;;;;;;2.83;2.23;;;5.90;99.90;;;;;;4146118;28;20193;-64
2023/01/07 06:15:35;;;;;;;4.13;2.43;;;6.00;99.90;;;;;;4145662;28;20229;-64
2023/01/07 06:17:37;;;;;;;4.57;3.00;;;6.00;99.90;;;;;;4145084;28;20452;-64
2023/01/07 06:19:38;;;;;;;3.70;2.10;;;6.00;99.90;;;;;;4146083;28;20479;-63
2023/01/07 06:21:38;;;;;;;2.13;1.80;;;5.90;99.90;;;;;;4145848;28;20217;-63
2023/01/07 06:23:39;;;;;;;1.93;1.60;;;5.90;99.90;;;;;;4145829;28;20189;-63
2023/01/07 06:25:40;;;;;;;2.00;1.80;;;5.90;99.90;;;;;;4145568;28;20185;-63
2023/01/07 06:27:40;;;;;;;3.00;1.80;;;6.00;99.90;;;;;;4144700;28;20675;-64
2023/01/07 06:29:41;;;;;;;2.10;1.40;;;6.10;99.90;;;;;;4145710;28;20657;-63
2023/01/07 06:31:42;;;;;;;2.43;1.67;;;6.10;99.90;;;;;;4147945;28;20268;-63
2023/01/07 06:33:43;;;;;;;1.90;1.60;;;5.90;99.90;;;;;;4161712;28;20192;-63
2023/01/07 06:35:45;;;;;;;2.40;1.97;;;5.90;99.90;;;;;;4161949;28;20637;-63
2023/01/07 06:37:46;;;;;;;2.40;1.70;;;5.80;99.90;;;;;;4159722;28;20424;-64
2023/01/07 06:39:46;;;;;;;1.87;1.67;;;5.80;99.90;;;;;;4161701;28;20518;-63
2023/01/07 06:41:47;;;;;;;3.23;2.23;;;5.80;99.90;;;;;;4161703;28;20185;-63
2023/01/07 06:43:48;;;;;;;3.67;2.43;;;5.90;99.90;;;;;;4160302;28;20206;-63
2023/01/07 06:45:48;;;;;;;2.67;1.93;;;5.90;99.90;;;;;;4161657;28;20710;-63
2023/01/07 06:47:49;;;;;;;2.90;2.03;;;5.90;99.90;;;;;;4160894;28;20527;-63
2023/01/07 06:49:51;;;;;;;3.60;2.13;;;5.80;99.90;;;;;;4161485;28;20203;-63
2023/01/07 06:51:52;;;;;;;2.47;1.87;;;5.70;99.90;;;;;;4160253;28;20180;-63
2023/01/07 06:53:52;;;;;;;2.33;1.90;;;5.60;99.90;;;;;;4161737;28;20518;-63
2023/01/07 06:55:53;;;;;;;2.03;1.63;;;5.50;99.90;;;;;;4160052;28;20922;-63
2023/01/07 06:57:53;;;;;;;2.83;1.70;;;5.60;99.90;;;;;;4160861;28;20260;-63
2023/01/07 06:59:54;;;;;;;1.53;1.43;;;5.50;99.90;;;;;;4161770;28;20181;-63
2023/01/07 07:01:55;;;;;;;2.10;1.57;;;5.50;99.90;;;;;;4161711;28;20189;-63
2023/01/07 07:03:55;;;;;;;2.07;1.67;;;5.60;99.90;;;;;;4161676;28;20299;-63
2023/01/07 07:05:56;;;;;;;1.43;1.30;;;5.70;99.90;;;;;;4161329;28;20204;-63
2023/01/07 07:07:57;;;;;;;2.67;1.60;;;5.80;99.90;;;;;;4162388;28;20188;-63
2023/01/07 07:09:57;;;;;;;2.17;1.90;;;5.90;99.90;;;;;;4164500;28;20207;-63
2023/01/07 07:11:58;;;;;;;5.40;4.33;;;5.90;99.90;;;;;;4164943;28;20181;-63
2023/01/07 07:13:59;;;;;;;2.23;1.87;;;5.80;99.90;;;;;;4164720;28;20637;-63
2023/01/07 07:15:59;;;;;;;2.50;2.17;;;5.80;99.90;;;;;;4164643;28;20612;-63
2023/01/07 07:18:00;;;;;;;3.83;2.30;;;5.80;99.90;;;;;;4166236;28;20173;-63
2023/01/07 07:20:01;;;;;;;3.77;2.00;;;5.70;99.90;;;;;;4173671;28;20695;-63
2023/01/07 07:22:01;;;;;;;2.90;2.20;;;5.60;99.90;;;;;;4165710;28;20185;-64
2023/01/07 07:24:02;;;;;;;2.97;2.03;;;5.60;99.90;;;;;;4165574;28;20185;-63
2023/01/07 07:26:03;;;;;;;3.10;2.10;;;5.80;99.90;;;;;;4161229;28;20181;-64
2023/01/07 07:28:04;;;;;;;2.17;1.90;;;6.00;99.90;;;;;;4148138;28;20220;-63
2023/01/07 07:30:07;;;;;;;3.63;2.43;;;6.10;99.90;;;;;;4148465;28;20704;-63
2023/01/07 07:32:08;;;;;;;3.17;2.00;;;6.10;99.90;;;;;;4148848;28;20192;-63
2023/01/07 07:34:09;;;;;;;3.10;2.70;;;6.00;99.90;;;;;;4148524;28;20195;-62
2023/01/07 07:36:10;;;;;;;2.97;2.40;;;5.90;99.90;;;;;;4148328;28;20444;-63
2023/01/07 07:38:10;;;;;;;2.37;2.00;;;5.80;99.90;;;;;;4147796;28;20425;-63
2023/01/07 07:40:11;;;;;;;2.50;1.90;;;5.80;99.90;;;;;;4148099;28;20198;-64
2023/01/07 07:42:12;;;;;;;2.83;2.20;;;5.70;99.90;;;;;;4148100;28;20190;-64
2023/01/07 07:44:13;;;;;;;3.60;2.33;;;5.70;99.90;;;;;;4148123;28;20420;-63
2023/01/07 07:46:13;;;;;;;2.30;1.73;;;5.80;99.90;;;;;;4148234;28;20178;-64
2023/01/07 07:48:15;;;;;;;1.93;1.70;;;5.70;99.90;;;;;;4146324;28;20668;-64
2023/01/07 07:50:15;;;;;;;2.07;1.87;;;5.70;99.90;;;;;;4148265;28;20676;-64
2023/01/07 07:52:17;;;;;;;3.87;2.83;;;5.70;99.90;;;;;;4148375;28;20524;-64
2023/01/07 07:54:18;;;;;;;3.33;2.23;;;5.80;99.90;;;;;;4147807;28;20729;-62
2023/01/07 07:56:18;;;;;;;4.80;3.23;;;5.90;99.90;;;;;;4147498;28;20421;-62
2023/01/07 07:58:20;;;;;;;5.03;2.47;;;6.00;99.90;;;;;;4146079;28;20217;-63
2023/01/07 08:00:21;;;;;;;7.37;3.20;;;6.10;99.90;;;;;;4152066;28;20308;-63
2023/01/07 08:02:21;;;;;;;3.60;1.90;;;6.10;99.90;;;;;;4164308;28;20429;-63
2023/01/07 08:04:22;;;;;;;2.37;1.70;;;6.10;99.90;;;;;;4162812;28;20489;-63
2023/01/07 08:06:23;;;;;;;2.10;1.90;;;6.10;99.90;;;;;;4163787;28;20197;-62
2023/01/07 08:08:23;;;;;;;2.40;1.80;;;6.10;99.90;;;;;;4163951;28;20185;-62
2023/01/07 08:10:27;;;;;;;2.60;1.87;;;6.20;99.80;;;;;;4164106;28;20564;-63
2023/01/07 08:12:27;;;;;;;2.40;1.80;;;6.30;99.50;;;;;;4162781;28;20282;-62
2023/01/07 08:14:28;;;;;;;2.47;1.83;;;6.20;99.60;;;;;;4164009;28;20255;-63
2023/01/07 08:16:29;;;;;;;3.17;2.10;;;6.20;99.90;;;;;;4163005;28;20192;-62
2023/01/07 08:18:29;;;;;;;3.43;1.80;;;6.10;99.90;;;;;;4163735;28;20181;-62
2023/01/07 08:20:31;;;;;;;3.67;1.80;;;5.80;99.90;;;;;;4163253;28;20250;-62
2023/01/07 08:22:32;;;;;;;4.17;2.07;;;5.60;99.90;;;;;;4163663;28;20177;-62
2023/01/07 08:24:32;;;;;;;2.80;2.07;;;5.50;99.90;;;;;;4163639;28;20941;-62
2023/01/07 08:26:33;;;;;;;5.67;3.67;;;5.50;99.90;;;;;;4162753;28;20194;-64
2023/01/07 08:28:34;;;;;;;6.07;4.30;;;5.50;99.90;;;;;;4163617;28;20284;-63
2023/01/07 08:30:35;;;;;;;5.53;3.57;;;5.60;99.90;;;;;;4163655;28;20209;-63
2023/01/07 08:32:36;;;;;;;3.90;2.50;;;5.70;99.90;;;;;;4162512;28;20606;-64
2023/01/07 08:34:36;;;;;;;4.97;2.90;;;5.80;99.90;;;;;;4163405;28;20240;-63
2023/01/07 08:36:37;;;;;;;2.70;2.20;;;5.70;99.90;;;;;;4162885;28;20435;-63
2023/01/07 08:38:38;;;;;;;3.80;2.40;;;5.70;99.90;;;;;;4162364;28;20192;-62
2023/01/07 08:40:39;;;;;;;4.13;2.07;;;5.60;99.90;;;;;;4163231;28;20452;-63
2023/01/07 08:42:40;;;;;;;2.50;1.90;;;5.50;99.90;;;;;;4163445;28;20337;-63
2023/01/07 08:44:40;;;;;;;3.40;2.43;;;5.40;99.90;;;;;;4163276;28;20196;-63
2023/01/07 08:46:41;;;;;;;3.43;2.13;;;5.50;99.90;;;;;;4162519;28;20660;-63
2023/01/07 08:48:42;;;;;;;4.03;2.40;;;5.60;99.90;;;;;;4163391;28;20694;-63
2023/01/07 08:50:52;;;;;;;4.00;2.70;;;5.70;99.90;;;;;;4163203;28;20216;-63
2023/01/07 08:52:52;;;;;;;3.73;2.47;;;5.70;99.90;;;;;;4161851;28;20214;-64
2023/01/07 08:54:53;;;;;;;4.63;2.10;;;5.80;99.90;;;;;;4163202;28;20914;-63
2023/01/07 08:56:54;;;;;;;2.50;1.90;;;5.80;99.90;;;;;;4160752;28;20177;-63
2023/01/07 08:58:54;;;;;;;3.67;2.30;;;5.80;99.90;;;;;;4162903;28;20177;-62
2023/01/07 09:01:04;;;;;;;2.77;2.20;;;5.70;99.90;;;;;;4163045;28;20232;-62
2023/01/07 09:03:05;;;;;;;2.30;1.70;;;5.70;99.90;;;;;;4163313;28;20555;-63
2023/01/07 09:05:06;;;;;;;2.33;1.80;;;5.60;99.90;;;;;;4163075;28;20461;-63
2023/01/07 09:07:08;;;;;;;2.70;2.17;;;5.70;99.90;;;;;;4162163;28;20188;-64
2023/01/07 09:09:10;;;;;;;2.40;1.97;;;5.80;99.90;;;;;;4162890;28;20798;-64
2023/01/07 09:11:11;;;;;;;4.20;2.63;;;5.80;99.90;;;;;;4162832;28;20444;-63
2023/01/07 09:13:11;;;;;;;3.93;2.77;;;5.80;99.90;;;;;;4155462;28;20448;-61
2023/01/07 09:15:12;;;;;;;2.83;2.03;;;5.90;99.90;;;;;;4160510;28;20231;-62
2023/01/07 09:17:13;;;;;;;2.73;1.90;;;6.00;99.90;;;;;;4166735;28;20747;-59
2023/01/07 09:19:14;;;;;;;3.03;2.23;;;6.10;99.90;;;;;;4178764;28;20322;-60
2023/01/07 09:21:15;;;;;;;2.40;2.00;;;5.90;99.90;;;;;;4168197;28;20632;-63
2023/01/07 09:23:16;;;;;;;2.57;2.00;;;5.70;99.90;;;;;;4178202;28;20189;-63
2023/01/07 09:25:17;;;;;;;3.43;2.20;;;5.80;99.90;;;;;;4163708;28;20189;-64
2023/01/07 09:27:17;;;;;;;3.30;2.27;;;5.80;99.90;;;;;;4176041;28;20492;-63
2023/01/07 09:29:18;;;;;;;6.73;3.37;;;5.70;99.90;;;;;;4163231;28;20268;-64
2023/01/07 09:31:19;;;;;;;4.47;2.30;;;5.80;99.90;;;;;;4177155;28;20203;-64
2023/01/07 09:33:19;;;;;;;2.90;2.10;;;5.90;99.90;;;;;;4163114;28;20181;-64
2023/01/07 09:35:20;;;;;;;3.27;2.23;;;5.90;99.90;;;;;;4157082;28;20577;-62
2023/01/07 09:37:21;;;;;;;3.17;2.10;;;6.10;99.90;;;;;;4177286;28;20235;-62
2023/01/07 09:39:22;;;;;;;3.33;2.30;;;6.30;99.90;;;;;;4162695;28;20262;-64
2023/01/07 09:42:21;;;;;;;3.63;2.57;;;6.50;99.90;;;;;;4178511;28;20204;-62
2023/01/07 09:44:52;;;;;;;2.90;2.20;;;7.20;98.90;;;;;;4126846;28;20195;-62
2023/01/07 09:46:55;;;;;;;2.63;2.03;;;7.80;95.80;;;;;;4156972;28;20207;-63
2023/01/07 09:49:02;;;;;;;2.40;2.00;;;8.10;95.60;;;;;;4174516;28;20666;-63
2023/01/07 09:51:16;;;;;;;5.93;2.87;;;8.50;94.60;;;;;;4165196;28;20204;-62
2023/01/07 09:53:36;;;;;;;2.60;2.20;;;8.70;92.40;;;;;;4176612;28;20164;-62
2023/01/07 09:55:40;;;;;;;2.80;1.97;;;8.90;91.90;;;;;;4149290;28;20300;-63
2023/01/07 09:57:41;;;;;;;2.93;2.27;;;9.20;91.10;;;;;;4174201;28;20693;-63
2023/01/07 09:59:42;;;;;;;3.17;2.53;;;9.50;90.00;;;;;;4164241;28;20230;-63
2023/01/07 10:01:54;;;;;;;3.93;2.70;;;9.70;88.60;;;;;;4174431;28;20208;-63
2023/01/07 10:04:15;;;;;;;3.13;2.40;;;9.70;87.00;;;;;;4165905;28;20666;-63
2023/01/07 10:07:08;;;;;;;3.60;2.63;;;9.50;89.40;;;;;;4169809;28;20215;-63
2023/01/07 10:09:37;;;;;;;3.60;2.87;;;9.40;90.00;;;;;;4175853;28;20695;-62
2023/01/07 10:12:05;;;;;;;3.00;2.60;;;9.70;87.20;;;;;;4149130;28;20890;-63
2023/01/07 10:14:30;;;;;;;2.60;2.30;;;9.60;86.80;;;;;;4171052;28;20169;-62
2023/01/07 10:16:52;;;;;;;2.83;2.33;;;9.70;86.50;;;;;;4169821;28;20556;-62
2023/01/07 10:19:09;;;;;;;4.50;2.70;;;9.80;85.30;;;;;;4164695;28;20177;-63
2023/01/07 10:21:24;;;;;;;3.13;2.53;;;9.70;87.20;;;;;;4175926;28;20211;-63
2023/01/07 10:23:34;;;;;;;2.70;2.23;;;9.50;88.70;;;;;;4145235;28;20743;-61
2023/01/07 10:25:43;;;;;;;2.93;2.30;;;9.50;88.80;;;;;;4175338;28;20195;-62
2023/01/07 10:27:45;;;;;;;3.47;2.83;;;9.20;89.00;;;;;;4145689;28;20681;-62
2023/01/07 10:29:53;;;;;;;3.57;3.07;;;9.00;90.50;;;;;;4149795;28;20242;-63
2023/01/07 10:31:57;;;;;;;2.83;2.03;;;8.90;90.80;;;;;;4172593;28;20178;-63
2023/01/07 10:33:58;;;;;;;2.47;2.27;;;9.00;91.00;;;;;;4166044;28;20309;-63
2023/01/07 10:36:20;;;;;;;5.20;3.30;;;9.10;89.50;;;;;;4173109;28;20208;-63
2023/01/07 10:38:20;;;;;;;2.57;2.03;;;9.20;89.00;;;;;;4162910;28;20260;-63
2023/01/07 10:40:43;;;;;;;3.20;2.90;;;9.40;89.40;;;;;;4161684;28;20232;-63
2023/01/07 10:43:00;;;;;;;3.73;2.43;;;9.60;86.60;;;;;;4173178;28;20188;-64
2023/01/07 10:45:24;;;;;;;3.97;2.90;;;9.40;88.80;;;;;;4167225;28;20188;-62
2023/01/07 10:47:30;;;;;;;3.03;2.73;;;9.80;88.60;;;;;;4179253;28;20207;-63
2023/01/07 10:49:59;;;;;;;4.00;2.87;;;10.00;85.90;;;;;;4150339;28;20173;-62
2023/01/07 10:52:12;;;;;;;4.50;3.17;;;9.90;84.70;;;;;;4175261;28;20173;-63
2023/01/07 10:54:36;;;;;;;3.63;2.40;;;10.10;84.80;;;;;;4170226;28;20203;-63
2023/01/07 10:56:45;;;;;;;3.37;2.37;;;10.80;85.40;;;;;;4162296;28;20231;-63
2023/01/07 10:58:48;;;;;;;3.37;2.90;;;11.10;77.10;;;;;;4169184;28;20635;-63
2023/01/07 11:00:49;;;;;;;5.00;2.90;;;11.50;76.60;;;;;;4169436;28;20287;-63
2023/01/07 11:02:57;;;;;;;3.20;2.90;;;11.50;76.00;;;;;;4174960;28;20745;-63
2023/01/07 11:04:59;;;;;;;4.43;4.03;;;11.30;76.80;;;;;;4168222;28;20548;-63